EGHE - Scilly, Saint Mary's
Distance from station: E 5mi, 14km
Updated: 10/24/2017 12:50am
Light drizzle, Mist, Overcast
Light drizzle, Mist, Overcast
 Wind from SW
Wind: SW 23 mph , 37 km/h
Temperature: 59°F , 15°C
Dew Point: 59°F , 15°C
Humidity: 100%
Barometer: 30.06 inHg , 1018 hPa
Summary: Light drizzle, Mist
Clouds: Overcast
Visibility: 1 mile , 1 km
Cloud details: Partly Cloudy 100 ft
Overcast 200 ft
2017/10/24 07:50 EGHE 240750Z 22020KT 1200 -DZ BR SCT001 OVC002 15/15 Q1018